x

Matinicus Rock, Me (mism1) Weather Station

3:00 - Tue 6th Dec 2016 All times are EST. -5 hours from GMT.

  • Wind
    13mph, 17mph gusts
  • Aire Temp 33°f
  • Sea Pressure 1018mb
  • Matinicus Rock, Me
  • Matinicus Rock, Me

More Historic Weather Station data

Upgrade to MSW Pro to gain access to the past 30 days of data for over 8000 Wavebouys and Weather Stations around the globe.

Join Pro

Comparision Forecast

View Surf forecast
   
mar 12/06 3:00 13 17 mph 1018mb 33f
2:00 16 17 mph 1017.7mb 33f
1:00 17 18 mph 1017.8mb 33f
12:00 18 22 mph 1018.1mb 33f
11:00 23 26 mph 1018mb 33f
10:00 23 25 mph 1018.6mb 33f
9:00 22 24 mph 1018.2mb 33f
8:00 21 24 mph 1017.9mb 33f
7:00 23 25 mph 1017.8mb 33f
6:00 22 25 mph 1017.1mb 34f
5:00 21 23 mph 1016.4mb 35f
4:00 21 24 mph 1015.7mb 34f
3:00 22 24 mph 1015.2mb 34f
2:00 28 30 mph 1014mb 35f
1:00 23 25 mph 1012.9mb 35f
12:00 26 29 mph 1011.9mb 35f
lun 12/05 11:00 28 30 mph 1011.5mb 35f
10:00 29 31 mph 1010.7mb 36f
9:00 25 28 mph 1010.5mb 37f
8:00 29 31 mph 1010.3mb 39f
7:00 18 20 mph 1010.6mb 41f
6:00 26 29 mph 1011.3mb 40f
5:00 23 26 mph 1012.2mb 39f
4:00 22 25 mph 1012.4mb 38f
3:00 20 23 mph 1012.4mb 38f
2:00 20 23 mph 1013mb 37f
1:00 14 17 mph 1014.1mb 36f
12:00 7 10 mph 1015.1mb 37f
11:00 9 11 mph 1015.9mb 37f
10:00 5 7 mph 1017.4mb 36f
9:00 5 6 mph 1018.3mb 35f
8:00  -  1 mph 1018.8mb 34f
7:00 2 3 mph 1019mb 33f
6:00 2
mph
1019.4mb 32f
5:00 3 6 mph 1019.7mb 32f
4:00 5
mph
1019.3mb 31f
3:00 5 6 mph 1019.6mb 31f
2:00 9 10 mph 1020.5mb 31f
1:00 14 16 mph 1020.1mb 31f
12:00 9 10 mph 1020.7mb 31f
dom 12/04 11:00 9 11 mph 1021.2mb 31f
10:00 14 15 mph 1021.4mb 32f
9:00 16 20 mph 1021.3mb 32f
8:00 22 25 mph 1020.9mb 33f
7:00 23 26 mph 1020.8mb 34f
6:00 20 23 mph 1020.9mb 35f
5:00 24 28 mph 1020.2mb 36f
4:00 22 25 mph 1019.4mb 37f
3:00 16 18 mph 1019.2mb 37f
2:00 16 18 mph 1018.7mb 35f
1:00 16 17 mph 1018.7mb 35f
12:00 16 18 mph 1018.9mb 34f
11:00 21 25 mph 1018.9mb 33f
10:00 22 28 mph 1019mb 33f
9:00 23 25 mph 1018.9mb 34f
8:00 26 29 mph 1018.2mb 33f
7:00 26 31 mph 1017.9mb 34f
6:00 24 26 mph 1017.2mb 35f
5:00 25 29 mph 1016.7mb 35f
4:00 22 26 mph 1016.4mb 35f
3:00 24 26 mph 1016mb 35f
2:00 26 31 mph 1015.5mb 36f
1:00 28 31 mph 1015mb 35f
12:00 29 33 mph 1014.5mb 36f
sáb 12/03 11:00 24 26 mph 1014.2mb 36f
10:00 28 30 mph 1013.7mb 36f
9:00 26 31 mph 1013.3mb 37f
8:00 28 31 mph 1013.1mb 37f
7:00 29 33 mph 1012.1mb 38f
6:00 30 32 mph 1011.5mb 38f
5:00 25 28 mph 1010.7mb 39f
4:00 29 33 mph 1009.5mb 40f
3:00 25 28 mph 1008.9mb 40f
2:00 25 28 mph 1008mb 40f
1:00 23 28 mph 1007.5mb 40f
12:00 24 29 mph 1007.1mb 39f
11:00 30 33 mph 1006.7mb 38f
10:00 30 32 mph 1006.3mb 39f
9:00 26 31 mph 1005.7mb 38f
8:00 30 36 mph 1005mb 39f
7:00 30 34 mph 1004.3mb 41f
6:00 29 34 mph 1003.7mb 41f
5:00 32 36 mph 1003.2mb 40f
4:00 31 34 mph 1002.9mb 41f
3:00 28 31 mph 1002.8mb 41f
2:00 25 30 mph 1003.1mb 41f
1:00 26 29 mph 1002.6mb 40f
12:00 29 30 mph 1002.2mb 42f
vie 12/02 11:00 25 28 mph 1002.7mb 43f
10:00 24 28 mph 1002.4mb 46f